Sealand Washington — 9HA3421 — position and weather

sailwx.info

Track history (hours):
 
Tides and Currents Weather Stations Pressure Air Temp Water Temp Dewpoint Dewpoint Depression Visibility Wind Speed Wind Dir Waves Ship Positions

Sealand Washington

Last reported at 2018-Jan-24 02:15 UTC. Time now 2018-Jan-24 11:12 UTC.
Position N 33°46' W 076°44'.

Length 304 m; draft 11.4 m.

Type: Ship (hazmat cat A). MMSI: 229577000.

Date/timePositionNaut miles runAvg speedWind from/ knotsBaromVisibWave heightAir tempDewpointWater temp
2018-Jan-24 02:15N 33°46' W 076°44'713.6
2018-Jan-24 01:45N 33°50' W 076°38'1714.2
2018-Jan-24 00:34N 34°01' W 076°23'214.1
2018-Jan-24 00:24N 34°03' W 076°21'16911.3
2018-Jan-23 09:22N 36°50' W 075°49'4 9.4
2018-Jan-23 09:00N 36°52' W 075°53'5 9.3
2018-Jan-23 08:30N 36°56' W 075°57'5 9.6
2018-Jan-23 08:00N 36°57' W 076°03'815.7
2018-Jan-23 07:29N 36°60' W 076°12'611.9
2018-Jan-23 07:00N 36°59' W 076°19'5 9.0
2018-Jan-23 06:26N 36°54' W 076°20'3 6.0
2018-Jan-23 06:00N 36°52' W 076°19'0 0.7
2018-Jan-23 05:30N 36°51' W 076°20'0 0.0
2018-Jan-23 05:00N 36°51' W 076°20'0 0.0
2018-Jan-23 04:30N 36°51' W 076°20'0 0.0
2018-Jan-23 04:00N 36°51' W 076°20'0 0.0
2018-Jan-23 03:30N 36°51' W 076°20'0 0.0
2018-Jan-23 03:00N 36°51' W 076°20'0 0.0
2018-Jan-23 02:30N 36°51' W 076°20'0 0.0
2018-Jan-23 02:00N 36°51' W 076°20'0 0.0
2018-Jan-23 01:30N 36°51' W 076°20'0 0.0
2018-Jan-23 01:00N 36°51' W 076°20'0 0.0
2018-Jan-23 00:30N 36°51' W 076°20'0 0.0
2018-Jan-23 00:00N 36°51' W 076°20'0 0.0
2018-Jan-22 23:30N 36°51' W 076°20'0 0.0
2018-Jan-22 23:00N 36°51' W 076°20'0 0.0
2018-Jan-22 22:30N 36°51' W 076°20'0 0.0
2018-Jan-22 22:00N 36°51' W 076°20'0 0.0
2018-Jan-22 21:30N 36°51' W 076°20'0 0.0
2018-Jan-22 21:00N 36°51' W 076°20'0 0.0
2018-Jan-22 20:30N 36°51' W 076°20'0 0.0
2018-Jan-22 20:00N 36°51' W 076°20'0 0.0
2018-Jan-22 19:30N 36°51' W 076°20'0 0.0
2018-Jan-22 19:00N 36°51' W 076°20'0 0.0
2018-Jan-22 18:30N 36°51' W 076°20'0 0.0
2018-Jan-22 18:00N 36°51' W 076°20'0 0.0
2018-Jan-22 17:30N 36°51' W 076°20'0 0.0
2018-Jan-22 17:00N 36°51' W 076°20'0 0.0
2018-Jan-22 16:30N 36°51' W 076°20'0 0.0
2018-Jan-22 16:00N 36°51' W 076°20'0 0.0
2018-Jan-22 15:30N 36°51' W 076°20'0 0.0
2018-Jan-22 15:00N 36°51' W 076°20'0 0.0
2018-Jan-22 14:30N 36°51' W 076°20'0 0.0
2018-Jan-22 14:00N 36°51' W 076°20'0 0.0
2018-Jan-22 13:30N 36°51' W 076°20'0 0.0
2018-Jan-22 13:00N 36°51' W 076°20'0 0.0
2018-Jan-22 12:30N 36°51' W 076°20'0 0.0
2018-Jan-22 12:00N 36°51' W 076°20'0 0.0
2018-Jan-22 11:30N 36°51' W 076°20'0 0.0
2018-Jan-22 11:00N 36°51' W 076°20'0 0.0
2018-Jan-22 10:30N 36°51' W 076°20'0 0.0
2018-Jan-22 10:00N 36°51' W 076°20'0 0.0
2018-Jan-22 09:30N 36°51' W 076°20'0 0.0
2018-Jan-22 09:00N 36°51' W 076°20'0 0.0
2018-Jan-22 08:30N 36°51' W 076°20'0 0.0
2018-Jan-22 08:00N 36°51' W 076°20'0 0.0
2018-Jan-22 07:30N 36°51' W 076°20'0 0.0
2018-Jan-22 07:00N 36°51' W 076°20'0 0.0
2018-Jan-22 06:30N 36°51' W 076°20'0 0.0
2018-Jan-22 06:00N 36°51' W 076°20'0 0.0
2018-Jan-22 05:30N 36°51' W 076°20'0 0.0
2018-Jan-22 05:00N 36°51' W 076°20'0 0.0
2018-Jan-22 04:30N 36°51' W 076°20'0 0.7
2018-Jan-22 04:00N 36°52' W 076°19'1 2.5
2018-Jan-22 03:30N 36°53' W 076°20'3 6.8
2018-Jan-22 03:00N 36°56' W 076°20'4 7.9
2018-Jan-22 02:30N 36°60' W 076°18'814.2
2018-Jan-22 01:57N 36°59' W 076°09'614.8
2018-Jan-22 01:30N 36°57' W 076°01'3 5.8
2018-Jan-22 01:00N 36°57' W 075°57'4 8.1
2018-Jan-22 00:30N 36°54' W 075°54'5 9.1
2018-Jan-21 23:57N 36°51' W 075°48'3 0.3
2018-Jan-21 14:23N 36°49' W 075°46'4 9.5
2018-Jan-21 13:59N 36°51' W 075°50'5 9.3
2018-Jan-21 13:30N 36°53' W 075°54'5 9.5
2018-Jan-21 12:59N 36°57' W 075°59'612.9
2018-Jan-21 12:30N 37°02' W 076°03'918.3
2018-Jan-21 12:00N 37°10' W 076°09'4717.2
2018-Jan-21 09:14N 37°57' W 076°10'517.7
2018-Jan-21 08:59N 38°01' W 076°12'1018.4
2018-Jan-21 08:26N 38°11' W 076°14'1818.5
2018-Jan-21 07:26N 38°28' W 076°23'1017.7
2018-Jan-21 06:53N 38°38' W 076°25'718.4
2018-Jan-21 06:30N 38°45' W 076°26'919.0
2018-Jan-21 06:00N 38°54' W 076°24'815.7
2018-Jan-21 05:30N 39°02' W 076°23'713.8
2018-Jan-21 05:00N 39°09' W 076°25'611.2
2018-Jan-21 04:30N 39°12' W 076°31'4 7.7
2018-Jan-21 04:00N 39°15' W 076°34'0 0.9
2018-Jan-21 03:28N 39°15' W 076°33'0 0.0
2018-Jan-21 02:58N 39°15' W 076°33'0 0.0
2018-Jan-21 02:28N 39°15' W 076°33'0 0.0
2018-Jan-21 01:58N 39°15' W 076°33'0 0.0
2018-Jan-21 01:25N 39°15' W 076°33'0 0.0
2018-Jan-21 00:58N 39°15' W 076°33'0 0.0
2018-Jan-21 00:28N 39°15' W 076°33'0 0.0
2018-Jan-20 23:58N 39°15' W 076°33'0 0.0
2018-Jan-20 23:28N 39°15' W 076°33'0 0.0
2018-Jan-20 22:58N 39°15' W 076°33'0 0.0
2018-Jan-20 22:28N 39°15' W 076°33'0 0.0
2018-Jan-20 21:58N 39°15' W 076°33'0 0.0
2018-Jan-20 21:28N 39°15' W 076°33'0 0.0
2018-Jan-20 20:58N 39°15' W 076°33'0 0.0
2018-Jan-20 20:28N 39°15' W 076°33'0 0.0
2018-Jan-20 19:58N 39°15' W 076°33'0 0.0
2018-Jan-20 19:28N 39°15' W 076°33'0 0.0
2018-Jan-20 18:58N 39°15' W 076°33'0 0.0
2018-Jan-20 18:28N 39°15' W 076°33'0 0.0
2018-Jan-20 17:58N 39°15' W 076°33'0 0.0
2018-Jan-20 17:28N 39°15' W 076°33'0 0.0
2018-Jan-20 16:58N 39°15' W 076°33'0 0.0
2018-Jan-20 16:28N 39°15' W 076°33'0 0.0
2018-Jan-20 15:58N 39°15' W 076°33'0 0.0
2018-Jan-20 15:28N 39°15' W 076°33'0 0.0
2018-Jan-20 14:58N 39°15' W 076°33'0 0.0
2018-Jan-20 14:28N 39°15' W 076°33'0 0.0
2018-Jan-20 13:58N 39°15' W 076°33'0 0.0
2018-Jan-20 13:28N 39°15' W 076°33'0 0.0
2018-Jan-20 12:58N 39°15' W 076°33'0 0.0
2018-Jan-20 12:28N 39°15' W 076°33'0 0.0
2018-Jan-20 11:58N 39°15' W 076°33'0 0.0
2018-Jan-20 11:28N 39°15' W 076°33'0 0.0
2018-Jan-20 10:58N 39°15' W 076°33'0 0.0
2018-Jan-20 10:28N 39°15' W 076°33'0 0.0
2018-Jan-20 09:58N 39°15' W 076°33'0 0.0
2018-Jan-20 09:28N 39°15' W 076°33'0 0.0
2018-Jan-20 08:58N 39°15' W 076°33'0 0.0
2018-Jan-20 08:28N 39°15' W 076°33'0 0.0
2018-Jan-20 07:58N 39°15' W 076°33'0 0.0
2018-Jan-20 07:28N 39°15' W 076°33'0 0.0
2018-Jan-20 06:58N 39°15' W 076°33'0 0.0
2018-Jan-20 06:28N 39°15' W 076°33'0 0.0
2018-Jan-20 05:58N 39°15' W 076°33'0 0.0
2018-Jan-20 05:28N 39°15' W 076°33'0 0.0
2018-Jan-20 04:58N 39°15' W 076°33'0 0.0
2018-Jan-20 04:28N 39°15' W 076°33'0 0.0
2018-Jan-20 03:58N 39°15' W 076°33'0 0.0
2018-Jan-20 03:28N 39°15' W 076°33'0 0.0
2018-Jan-20 02:58N 39°15' W 076°33'0 0.0
2018-Jan-20 02:28N 39°15' W 076°33'0 0.0
2018-Jan-20 01:58N 39°15' W 076°33'0 0.0
2018-Jan-20 01:28N 39°15' W 076°33'0 0.0
2018-Jan-20 00:58N 39°15' W 076°33'0 0.0
2018-Jan-20 00:28N 39°15' W 076°33'0 0.0
2018-Jan-19 23:58N 39°15' W 076°33'0 0.0
2018-Jan-19 23:28N 39°15' W 076°33'0 0.0
2018-Jan-19 22:58N 39°15' W 076°33'0 0.0
2018-Jan-19 22:28N 39°15' W 076°33'0 0.0
2018-Jan-19 21:58N 39°15' W 076°33'0 0.0
2018-Jan-19 21:28N 39°15' W 076°33'0 0.0
2018-Jan-19 20:55N 39°15' W 076°33'0 0.0
2018-Jan-19 20:28N 39°15' W 076°33'0 0.0
2018-Jan-19 19:58N 39°15' W 076°33'0 0.0
2018-Jan-19 19:28N 39°15' W 076°33'0 0.0
2018-Jan-19 18:58N 39°15' W 076°33'0 0.0
2018-Jan-19 18:28N 39°15' W 076°33'0 0.0
2018-Jan-19 17:58N 39°15' W 076°33'0 0.0
2018-Jan-19 17:28N 39°15' W 076°33'0 0.0
2018-Jan-19 16:58N 39°15' W 076°33'0 0.0
2018-Jan-19 16:28N 39°15' W 076°33'1 1.4
2018-Jan-19 16:00N 39°15' W 076°32'3 5.3
2018-Jan-19 15:30N 39°12' W 076°31'4 8.1
2018-Jan-19 15:00N 39°11' W 076°26'611.6
2018-Jan-19 14:30N 39°05' W 076°24'611.9
2018-Jan-19 14:00N 38°59' W 076°23'713.1
2018-Jan-19 13:31N 38°53' W 076°24'917.4
2018-Jan-19 13:00N 38°44' W 076°26'917.3
2018-Jan-19 12:31N 38°36' W 076°26'1217.2
2018-Jan-19 11:48N 38°24' W 076°21'517.7
2018-Jan-19 11:30N 38°19' W 076°18'917.6
2018-Jan-19 11:01N 38°11' W 076°14'918.0
2018-Jan-19 10:30N 38°02' W 076°13'6015.4
2018-Jan-19 06:35N 37°02' W 076°04'515.3
2018-Jan-19 06:17N 36°59' W 076°00'5 9.2
2018-Jan-19 05:44N 36°55' W 075°55'  
Track history (hours):
 
Tides and Currents Weather Stations Pressure Air Temp Water Temp Dewpoint Dewpoint Depression Visibility Wind Speed Wind Dir Waves Ship Positions

Sealand Washington

Last reported at 2018-Jan-24 02:15 UTC. Time now 2018-Jan-24 11:12 UTC.
Position N 33°46' W 076°44'.

Length 304 m; draft 11.4 m.

Type: Ship (hazmat cat A). MMSI: 229577000.

Date/timePositionNaut miles runAvg speedWind from/ knotsBaromVisibWave heightAir tempDewpointWater temp
2018-Jan-24 02:15N 33°46' W 076°44'713.6
2018-Jan-24 01:45N 33°50' W 076°38'1714.2
2018-Jan-24 00:34N 34°01' W 076°23'214.1
2018-Jan-24 00:24N 34°03' W 076°21'16911.3
2018-Jan-23 09:22N 36°50' W 075°49'4 9.4
2018-Jan-23 09:00N 36°52' W 075°53'5 9.3
2018-Jan-23 08:30N 36°56' W 075°57'5 9.6
2018-Jan-23 08:00N 36°57' W 076°03'815.7
2018-Jan-23 07:29N 36°60' W 076°12'611.9
2018-Jan-23 07:00N 36°59' W 076°19'5 9.0
2018-Jan-23 06:26N 36°54' W 076°20'3 6.0
2018-Jan-23 06:00N 36°52' W 076°19'0 0.7
2018-Jan-23 05:30N 36°51' W 076°20'0 0.0
2018-Jan-23 05:00N 36°51' W 076°20'0 0.0
2018-Jan-23 04:30N 36°51' W 076°20'0 0.0
2018-Jan-23 04:00N 36°51' W 076°20'0 0.0
2018-Jan-23 03:30N 36°51' W 076°20'0 0.0
2018-Jan-23 03:00N 36°51' W 076°20'0 0.0
2018-Jan-23 02:30N 36°51' W 076°20'0 0.0
2018-Jan-23 02:00N 36°51' W 076°20'0 0.0
2018-Jan-23 01:30N 36°51' W 076°20'0 0.0
2018-Jan-23 01:00N 36°51' W 076°20'0 0.0
2018-Jan-23 00:30N 36°51' W 076°20'0 0.0
2018-Jan-23 00:00N 36°51' W 076°20'0 0.0
2018-Jan-22 23:30N 36°51' W 076°20'0 0.0
2018-Jan-22 23:00N 36°51' W 076°20'0 0.0
2018-Jan-22 22:30N 36°51' W 076°20'0 0.0
2018-Jan-22 22:00N 36°51' W 076°20'0 0.0
2018-Jan-22 21:30N 36°51' W 076°20'0 0.0
2018-Jan-22 21:00N 36°51' W 076°20'0 0.0
2018-Jan-22 20:30N 36°51' W 076°20'0 0.0
2018-Jan-22 20:00N 36°51' W 076°20'0 0.0
2018-Jan-22 19:30N 36°51' W 076°20'0 0.0
2018-Jan-22 19:00N 36°51' W 076°20'0 0.0
2018-Jan-22 18:30N 36°51' W 076°20'0 0.0
2018-Jan-22 18:00N 36°51' W 076°20'0 0.0
2018-Jan-22 17:30N 36°51' W 076°20'0 0.0
2018-Jan-22 17:00N 36°51' W 076°20'0 0.0
2018-Jan-22 16:30N 36°51' W 076°20'0 0.0
2018-Jan-22 16:00N 36°51' W 076°20'0 0.0
2018-Jan-22 15:30N 36°51' W 076°20'0 0.0
2018-Jan-22 15:00N 36°51' W 076°20'0 0.0
2018-Jan-22 14:30N 36°51' W 076°20'0 0.0
2018-Jan-22 14:00N 36°51' W 076°20'0 0.0
2018-Jan-22 13:30N 36°51' W 076°20'0 0.0
2018-Jan-22 13:00N 36°51' W 076°20'0 0.0
2018-Jan-22 12:30N 36°51' W 076°20'0 0.0
2018-Jan-22 12:00N 36°51' W 076°20'0 0.0
2018-Jan-22 11:30N 36°51' W 076°20'0 0.0
2018-Jan-22 11:00N 36°51' W 076°20'0 0.0
2018-Jan-22 10:30N 36°51' W 076°20'0 0.0
2018-Jan-22 10:00N 36°51' W 076°20'0 0.0
2018-Jan-22 09:30N 36°51' W 076°20'0 0.0
2018-Jan-22 09:00N 36°51' W 076°20'0 0.0
2018-Jan-22 08:30N 36°51' W 076°20'0 0.0
2018-Jan-22 08:00N 36°51' W 076°20'0 0.0
2018-Jan-22 07:30N 36°51' W 076°20'0 0.0
2018-Jan-22 07:00N 36°51' W 076°20'0 0.0
2018-Jan-22 06:30N 36°51' W 076°20'0 0.0
2018-Jan-22 06:00N 36°51' W 076°20'0 0.0
2018-Jan-22 05:30N 36°51' W 076°20'0 0.0
2018-Jan-22 05:00N 36°51' W 076°20'0 0.0
2018-Jan-22 04:30N 36°51' W 076°20'0 0.7
2018-Jan-22 04:00N 36°52' W 076°19'1 2.5
2018-Jan-22 03:30N 36°53' W 076°20'3 6.8
2018-Jan-22 03:00N 36°56' W 076°20'4 7.9
2018-Jan-22 02:30N 36°60' W 076°18'814.2
2018-Jan-22 01:57N 36°59' W 076°09'614.8
2018-Jan-22 01:30N 36°57' W 076°01'3 5.8
2018-Jan-22 01:00N 36°57' W 075°57'4 8.1
2018-Jan-22 00:30N 36°54' W 075°54'5 9.1
2018-Jan-21 23:57N 36°51' W 075°48'3 0.3
2018-Jan-21 14:23N 36°49' W 075°46'4 9.5
2018-Jan-21 13:59N 36°51' W 075°50'5 9.3
2018-Jan-21 13:30N 36°53' W 075°54'5 9.5
2018-Jan-21 12:59N 36°57' W 075°59'612.9
2018-Jan-21 12:30N 37°02' W 076°03'918.3
2018-Jan-21 12:00N 37°10' W 076°09'4717.2
2018-Jan-21 09:14N 37°57' W 076°10'517.7
2018-Jan-21 08:59N 38°01' W 076°12'1018.4
2018-Jan-21 08:26N 38°11' W 076°14'1818.5
2018-Jan-21 07:26N 38°28' W 076°23'1017.7
2018-Jan-21 06:53N 38°38' W 076°25'718.4
2018-Jan-21 06:30N 38°45' W 076°26'919.0
2018-Jan-21 06:00N 38°54' W 076°24'815.7
2018-Jan-21 05:30N 39°02' W 076°23'713.8
2018-Jan-21 05:00N 39°09' W 076°25'611.2
2018-Jan-21 04:30N 39°12' W 076°31'4 7.7
2018-Jan-21 04:00N 39°15' W 076°34'0 0.9
2018-Jan-21 03:28N 39°15' W 076°33'0 0.0
2018-Jan-21 02:58N 39°15' W 076°33'0 0.0
2018-Jan-21 02:28N 39°15' W 076°33'0 0.0
2018-Jan-21 01:58N 39°15' W 076°33'0 0.0
2018-Jan-21 01:25N 39°15' W 076°33'0 0.0
2018-Jan-21 00:58N 39°15' W 076°33'0 0.0
2018-Jan-21 00:28N 39°15' W 076°33'0 0.0
2018-Jan-20 23:58N 39°15' W 076°33'0 0.0
2018-Jan-20 23:28N 39°15' W 076°33'0 0.0
2018-Jan-20 22:58N 39°15' W 076°33'0 0.0
2018-Jan-20 22:28N 39°15' W 076°33'0 0.0
2018-Jan-20 21:58N 39°15' W 076°33'0 0.0
2018-Jan-20 21:28N 39°15' W 076°33'0 0.0
2018-Jan-20 20:58N 39°15' W 076°33'0 0.0
2018-Jan-20 20:28N 39°15' W 076°33'0 0.0
2018-Jan-20 19:58N 39°15' W 076°33'0 0.0
2018-Jan-20 19:28N 39°15' W 076°33'0 0.0
2018-Jan-20 18:58N 39°15' W 076°33'0 0.0
2018-Jan-20 18:28N 39°15' W 076°33'0 0.0
2018-Jan-20 17:58N 39°15' W 076°33'0 0.0
2018-Jan-20 17:28N 39°15' W 076°33'0 0.0
2018-Jan-20 16:58N 39°15' W 076°33'0 0.0
2018-Jan-20 16:28N 39°15' W 076°33'0 0.0
2018-Jan-20 15:58N 39°15' W 076°33'0 0.0
2018-Jan-20 15:28N 39°15' W 076°33'0 0.0
2018-Jan-20 14:58N 39°15' W 076°33'0 0.0
2018-Jan-20 14:28N 39°15' W 076°33'0 0.0
2018-Jan-20 13:58N 39°15' W 076°33'0 0.0
2018-Jan-20 13:28N 39°15' W 076°33'0 0.0
2018-Jan-20 12:58N 39°15' W 076°33'0 0.0
2018-Jan-20 12:28N 39°15' W 076°33'0 0.0
2018-Jan-20 11:58N 39°15' W 076°33'0 0.0
2018-Jan-20 11:28N 39°15' W 076°33'0 0.0
2018-Jan-20 10:58N 39°15' W 076°33'0 0.0
2018-Jan-20 10:28N 39°15' W 076°33'0 0.0
2018-Jan-20 09:58N 39°15' W 076°33'0 0.0
2018-Jan-20 09:28N 39°15' W 076°33'0 0.0
2018-Jan-20 08:58N 39°15' W 076°33'0 0.0
2018-Jan-20 08:28N 39°15' W 076°33'0 0.0
2018-Jan-20 07:58N 39°15' W 076°33'0 0.0
2018-Jan-20 07:28N 39°15' W 076°33'0 0.0
2018-Jan-20 06:58N 39°15' W 076°33'0 0.0
2018-Jan-20 06:28N 39°15' W 076°33'0 0.0
2018-Jan-20 05:58N 39°15' W 076°33'0 0.0
2018-Jan-20 05:28N 39°15' W 076°33'0 0.0
2018-Jan-20 04:58N 39°15' W 076°33'0 0.0
2018-Jan-20 04:28N 39°15' W 076°33'0 0.0
2018-Jan-20 03:58N 39°15' W 076°33'0 0.0
2018-Jan-20 03:28N 39°15' W 076°33'0 0.0
2018-Jan-20 02:58N 39°15' W 076°33'0 0.0
2018-Jan-20 02:28N 39°15' W 076°33'0 0.0
2018-Jan-20 01:58N 39°15' W 076°33'0 0.0
2018-Jan-20 01:28N 39°15' W 076°33'0 0.0
2018-Jan-20 00:58N 39°15' W 076°33'0 0.0
2018-Jan-20 00:28N 39°15' W 076°33'0 0.0
2018-Jan-19 23:58N 39°15' W 076°33'0 0.0
2018-Jan-19 23:28N 39°15' W 076°33'0 0.0
2018-Jan-19 22:58N 39°15' W 076°33'0 0.0
2018-Jan-19 22:28N 39°15' W 076°33'0 0.0
2018-Jan-19 21:58N 39°15' W 076°33'0 0.0
2018-Jan-19 21:28N 39°15' W 076°33'0 0.0
2018-Jan-19 20:55N 39°15' W 076°33'0 0.0
2018-Jan-19 20:28N 39°15' W 076°33'0 0.0
2018-Jan-19 19:58N 39°15' W 076°33'0 0.0
2018-Jan-19 19:28N 39°15' W 076°33'0 0.0
2018-Jan-19 18:58N 39°15' W 076°33'0 0.0
2018-Jan-19 18:28N 39°15' W 076°33'0 0.0
2018-Jan-19 17:58N 39°15' W 076°33'0 0.0
2018-Jan-19 17:28N 39°15' W 076°33'0 0.0
2018-Jan-19 16:58N 39°15' W 076°33'0 0.0
2018-Jan-19 16:28N 39°15' W 076°33'1 1.4
2018-Jan-19 16:00N 39°15' W 076°32'3 5.3
2018-Jan-19 15:30N 39°12' W 076°31'4 8.1
2018-Jan-19 15:00N 39°11' W 076°26'611.6
2018-Jan-19 14:30N 39°05' W 076°24'611.9
2018-Jan-19 14:00N 38°59' W 076°23'713.1
2018-Jan-19 13:31N 38°53' W 076°24'917.4
2018-Jan-19 13:00N 38°44' W 076°26'917.3
2018-Jan-19 12:31N 38°36' W 076°26'1217.2
2018-Jan-19 11:48N 38°24' W 076°21'517.7
2018-Jan-19 11:30N 38°19' W 076°18'917.6
2018-Jan-19 11:01N 38°11' W 076°14'918.0
2018-Jan-19 10:30N 38°02' W 076°13'6015.4
2018-Jan-19 06:35N 37°02' W 076°04'515.3
2018-Jan-19 06:17N 36°59' W 076°00'5 9.2
2018-Jan-19 05:44N 36°55' W 075°55'  

Dump ship's entire track history